createdAt,value
2019-04-29T00:01:02.293Z,5.70
2019-04-29T00:05:09.766Z,6.27
2019-04-29T00:09:18.829Z,5.73
2019-04-29T00:13:25.622Z,6.17
2019-04-29T00:17:42.026Z,5.87
2019-04-29T00:21:50.324Z,5.93
2019-04-29T00:25:57.044Z,6.40
2019-04-29T00:30:03.868Z,6.30
2019-04-29T00:34:11.251Z,7.00
2019-04-29T00:38:37.663Z,6.33
2019-04-29T00:42:53.445Z,7.03
2019-04-29T00:47:00.146Z,7.20
2019-04-29T00:51:07.885Z,7.63
2019-04-29T00:55:17.193Z,6.73
2019-04-29T00:59:23.932Z,7.20
2019-04-29T01:03:31.179Z,7.70
2019-04-29T01:07:37.849Z,7.23
2019-04-29T01:11:45.072Z,7.63
2019-04-29T01:15:52.798Z,7.07
2019-04-29T01:19:59.495Z,6.80
2019-04-29T01:24:06.622Z,8.10
2019-04-29T01:28:22.122Z,8.77
2019-04-29T01:32:28.824Z,8.37
2019-04-29T01:36:38.313Z,9.20
2019-04-29T01:40:51.421Z,8.87
2019-04-29T01:44:58.233Z,8.80
2019-04-29T01:49:04.956Z,8.93
2019-04-29T01:53:11.608Z,9.07
2019-04-29T01:57:19.042Z,8.30
2019-04-29T02:01:25.709Z,8.73
2019-04-29T02:05:33.803Z,8.30
2019-04-29T02:09:58.274Z,8.97
2019-04-29T02:14:04.980Z,9.00
2019-04-29T02:18:11.742Z,9.13
2019-04-29T02:22:28.914Z,8.60
2019-04-29T02:26:35.658Z,7.90
2019-04-29T02:30:46.752Z,9.23
2019-04-29T02:34:53.521Z,8.53
2019-04-29T02:39:34.217Z,8.73
2019-04-29T02:43:42.573Z,7.97
2019-04-29T02:47:49.466Z,7.57
2019-04-29T02:51:56.241Z,8.10
2019-04-29T02:56:03.279Z,7.83
2019-04-29T03:00:20.803Z,7.00
2019-04-29T03:04:29.910Z,7.63
2019-04-29T03:08:36.606Z,7.70
2019-04-29T03:12:43.325Z,7.77
2019-04-29T03:16:50.157Z,7.77
2019-04-29T03:21:05.473Z,7.40
2019-04-29T03:25:12.362Z,8.17
2019-04-29T03:29:25.422Z,7.43
2019-04-29T03:33:32.289Z,8.30
2019-04-29T03:37:39.022Z,7.97
2019-04-29T03:41:45.715Z,7.13
2019-04-29T03:45:52.647Z,7.27
2019-04-29T03:49:59.491Z,7.23
2019-04-29T03:54:07.871Z,7.90
2019-04-29T03:58:14.601Z,7.53
2019-04-29T04:02:46.028Z,7.63
2019-04-29T04:06:58.321Z,8.07
2019-04-29T04:11:05.126Z,7.83
2019-04-29T04:15:11.932Z,8.40
2019-04-29T04:19:19.727Z,7.93
2019-04-29T04:23:26.618Z,8.00
2019-04-29T04:27:33.293Z,8.50
2019-04-29T04:31:41.131Z,8.53
2019-04-29T04:35:47.800Z,7.90
2019-04-29T04:39:55.023Z,9.03
2019-04-29T04:44:01.775Z,8.00
2019-04-29T04:48:08.524Z,8.63
2019-04-29T04:52:15.325Z,8.43
2019-04-29T04:56:22.300Z,8.93
2019-04-29T05:00:30.828Z,9.40
2019-04-29T05:04:37.584Z,7.93
2019-04-29T05:08:44.262Z,8.53
2019-04-29T05:12:50.967Z,8.70
2019-04-29T05:16:57.766Z,7.87
2019-04-29T05:21:04.562Z,7.77
2019-04-29T05:25:11.466Z,7.67
2019-04-29T05:29:18.401Z,7.87
2019-04-29T05:33:25.185Z,7.70
2019-04-29T05:37:37.750Z,8.27
2019-04-29T05:41:44.466Z,8.43
2019-04-29T05:45:58.354Z,9.30
2019-04-29T05:50:42.765Z,8.63
2019-04-29T05:54:49.652Z,9.47
2019-04-29T05:58:56.901Z,9.73
2019-04-29T06:03:03.787Z,8.43
2019-04-29T06:07:10.540Z,8.83
2019-04-29T06:11:17.223Z,8.67
2019-04-29T06:15:23.958Z,7.97
2019-04-29T06:19:35.154Z,7.73
2019-04-29T06:23:42.613Z,8.10
2019-04-29T06:27:49.406Z,7.10
2019-04-29T06:31:56.112Z,7.00
2019-04-29T06:36:02.904Z,7.20
2019-04-29T06:40:10.297Z,8.10
2019-04-29T06:44:17.082Z,8.37
2019-04-29T06:48:23.811Z,9.00
2019-04-29T06:52:30.632Z,8.57
2019-04-29T06:56:37.341Z,8.90
2019-04-29T07:00:44.110Z,7.07
2019-04-29T07:04:50.837Z,7.63
2019-04-29T07:08:57.659Z,7.37
2019-04-29T07:13:04.492Z,6.43
2019-04-29T07:17:11.272Z,6.47
2019-04-29T07:21:17.969Z,6.87
2019-04-29T07:25:28.342Z,7.30
2019-04-29T07:29:33.527Z,7.03
2019-04-29T07:33:40.429Z,6.80
2019-04-29T07:37:47.132Z,6.57
2019-04-29T07:41:54.734Z,6.33
2019-04-29T07:46:17.812Z,5.80
2019-04-29T07:50:26.624Z,6.63
2019-04-29T07:54:33.167Z,5.87
2019-04-29T07:58:39.896Z,6.30
2019-04-29T08:02:47.251Z,6.13
2019-04-29T08:06:55.367Z,6.57
2019-04-29T08:11:02.073Z,6.03
2019-04-29T08:15:10.555Z,5.67
2019-04-29T08:19:17.423Z,5.60
2019-04-29T08:23:24.232Z,4.73
2019-04-29T08:27:39.817Z,5.97
2019-04-29T08:31:39.457Z,5.53
2019-04-29T08:35:46.899Z,5.60
2019-04-29T08:40:14.788Z,5.20
2019-04-29T08:44:26.879Z,5.00
2019-04-29T08:48:33.667Z,4.67
2019-04-29T08:52:40.435Z,4.33
2019-04-29T08:57:02.381Z,4.70
2019-04-29T09:00:56.165Z,4.90
2019-04-29T09:05:06.753Z,4.70
2019-04-29T09:09:27.955Z,4.90
2019-04-29T09:13:21.088Z,4.83
2019-04-29T09:17:27.759Z,4.70
2019-04-29T09:21:34.588Z,6.07
2019-04-29T09:26:03.395Z,5.30
2019-04-29T09:30:13.418Z,5.20
2019-04-29T09:34:24.703Z,5.10
2019-04-29T09:38:32.541Z,5.97
2019-04-29T09:43:15.233Z,6.30
2019-04-29T09:47:14.491Z,5.70
2019-04-29T09:51:22.464Z,7.00
2019-04-29T09:55:30.094Z,6.30
2019-04-29T09:59:45.408Z,6.50
2019-04-29T10:04:11.614Z,6.17
2019-04-29T10:08:18.537Z,7.43
2019-04-29T10:12:25.290Z,6.57
2019-04-29T10:16:51.584Z,6.47
2019-04-29T10:21:01.818Z,6.57
2019-04-29T10:25:09.550Z,6.53
2019-04-29T10:29:20.175Z,5.80
2019-04-29T10:33:28.058Z,6.17
2019-04-29T10:37:36.367Z,5.73
2019-04-29T10:41:44.285Z,6.23
2019-04-29T10:46:15.776Z,6.10
2019-04-29T10:50:30.521Z,6.40
2019-04-29T10:54:37.764Z,5.80
2019-04-29T10:58:44.548Z,5.67
2019-04-29T11:02:51.600Z,4.63
2019-04-29T11:07:13.410Z,4.30
2019-04-29T11:11:22.116Z,3.93
2019-04-29T11:15:21.798Z,4.40
2019-04-29T11:19:28.744Z,3.03
2019-04-29T11:23:41.707Z,3.33
2019-04-29T11:27:51.995Z,2.73
2019-04-29T11:32:00.371Z,2.40
2019-04-29T11:36:11.825Z,2.90
2019-04-29T11:40:26.104Z,2.43
2019-04-29T11:44:31.987Z,2.80
2019-04-29T11:48:38.953Z,2.80
2019-04-29T11:52:48.161Z,2.60
2019-04-29T11:56:55.225Z,3.07
2019-04-29T12:01:37.336Z,2.80
2019-04-29T12:05:40.127Z,3.10
2019-04-29T12:09:50.020Z,2.73
2019-04-29T12:14:14.053Z,3.03
2019-04-29T12:18:24.448Z,2.90
2019-04-29T12:22:31.337Z,2.63
2019-04-29T12:26:42.997Z,2.83
2019-04-29T12:30:48.279Z,2.97
2019-04-29T12:35:21.717Z,2.97
2019-04-29T12:39:59.720Z,3.43
2019-04-29T12:44:09.855Z,2.80
2019-04-29T12:48:25.100Z,3.63
2019-04-29T12:52:27.343Z,3.40
2019-04-29T12:56:36.627Z,3.20
2019-04-29T13:00:48.053Z,4.67
2019-04-29T13:05:14.222Z,16.20
2019-04-29T13:09:28.099Z,14.50
2019-04-29T13:13:34.998Z,7.93
2019-04-29T13:18:03.127Z,5.67
2019-04-29T13:22:01.973Z,4.70
2019-04-29T13:26:08.956Z,3.47
2019-04-29T13:30:16.503Z,3.07
2019-04-29T13:34:33.474Z,3.20
2019-04-29T13:38:40.062Z,3.23
2019-04-29T13:42:49.224Z,4.00
2019-04-29T13:47:07.454Z,3.20
2019-04-29T13:51:34.726Z,3.20
2019-04-29T13:55:47.036Z,3.33
2019-04-29T13:59:47.570Z,3.70
2019-04-29T14:03:55.421Z,3.57
2019-04-29T14:08:03.970Z,3.57
2019-04-29T14:12:46.588Z,3.77
2019-04-29T14:16:47.505Z,3.20
2019-04-29T14:20:53.444Z,3.83
2019-04-29T14:25:02.755Z,3.47
2019-04-29T14:29:11.620Z,3.67
2019-04-29T14:33:26.184Z,3.30
2019-04-29T14:37:33.739Z,4.00
2019-04-29T14:41:51.035Z,3.77
2019-04-29T14:46:19.199Z,4.37
2019-04-29T14:50:28.896Z,4.07
2019-04-29T14:54:50.787Z,4.50
2019-04-29T14:59:06.725Z,4.33
2019-04-29T15:03:10.691Z,3.83
2019-04-29T15:07:20.977Z,3.70
2019-04-29T15:11:35.624Z,4.33
2019-04-29T15:16:05.314Z,5.80
2019-04-29T15:20:40.890Z,5.43
2019-04-29T15:24:48.555Z,4.57
2019-04-29T15:28:56.043Z,6.53
2019-04-29T15:33:07.192Z,5.93
2019-04-29T15:37:16.981Z,6.30
2019-04-29T15:41:33.182Z,6.50
2019-04-29T15:45:41.073Z,6.17
2019-04-29T15:49:55.508Z,6.63
2019-04-29T15:54:09.149Z,6.93
2019-04-29T15:58:15.389Z,6.10
2019-04-29T16:03:42.819Z,40.90
2019-04-29T16:14:54.248Z,7.77
2019-04-29T16:19:31.640Z,7.37
2019-04-29T16:23:44.480Z,7.23
2019-04-29T16:28:07.068Z,8.03
2019-04-29T16:32:21.586Z,7.60
2019-04-29T16:36:35.125Z,7.40
2019-04-29T16:40:57.210Z,7.77
2019-04-29T16:45:12.112Z,7.30
2019-04-29T16:49:16.329Z,6.80
2019-04-29T16:53:23.222Z,7.37
2019-04-29T16:57:29.937Z,7.40
2019-04-29T17:01:36.721Z,7.40
2019-04-29T17:05:43.800Z,7.97
2019-04-29T17:10:03.321Z,7.70
2019-04-29T17:14:12.735Z,7.17
2019-04-29T17:18:19.238Z,7.13
2019-04-29T17:22:27.698Z,7.33
2019-04-29T17:26:44.108Z,6.90
2019-04-29T17:31:22.904Z,7.00
2019-04-29T17:35:32.410Z,7.83
2019-04-29T17:39:40.238Z,8.17
2019-04-29T17:44:09.496Z,8.03
2019-04-29T17:48:35.642Z,8.07
2019-04-29T17:52:46.457Z,7.43
2019-04-29T17:57:25.643Z,8.70
2019-04-29T18:01:56.136Z,8.33
2019-04-29T18:06:49.002Z,10.23
2019-04-29T18:11:06.604Z,9.27
2019-04-29T18:15:17.676Z,10.13
2019-04-29T18:19:30.872Z,10.23
2019-04-29T18:23:56.793Z,10.57
2019-04-29T18:28:05.201Z,10.13
2019-04-29T18:32:12.190Z,9.50
2019-04-29T18:36:24.040Z,9.60
2019-04-29T18:40:30.149Z,10.20
2019-04-29T18:44:54.275Z,9.67
2019-04-29T18:48:50.087Z,10.67
2019-04-29T18:52:57.514Z,11.13
2019-04-29T18:57:05.861Z,10.47
2019-04-29T19:01:14.032Z,12.00
2019-04-29T19:05:32.367Z,10.83
2019-04-29T19:09:49.614Z,11.27
2019-04-29T19:13:56.658Z,11.33
2019-04-29T19:18:07.633Z,11.03
2019-04-29T19:22:16.506Z,11.20
2019-04-29T19:26:25.845Z,12.40
2019-04-29T19:30:32.311Z,12.50
2019-04-29T19:34:43.088Z,12.47
2019-04-29T19:38:48.351Z,11.60
2019-04-29T19:42:55.936Z,13.43
2019-04-29T19:47:03.328Z,15.03
2019-04-29T19:51:16.021Z,14.00
2019-04-29T19:55:18.854Z,13.63
2019-04-29T19:59:26.807Z,14.23
2019-04-29T20:03:41.551Z,14.27
2019-04-29T20:07:50.305Z,15.33
2019-04-29T20:12:13.274Z,16.17
2019-04-29T20:16:43.077Z,15.77
2019-04-29T20:20:42.843Z,16.53
2019-04-29T20:24:51.706Z,16.33
2019-04-29T20:28:59.418Z,17.23
2019-04-29T20:33:11.100Z,16.73
2019-04-29T20:37:18.142Z,18.43
2019-04-29T20:41:38.106Z,19.67
2019-04-29T20:45:32.119Z,18.57
2019-04-29T20:49:39.842Z,20.30
2019-04-29T20:53:56.092Z,21.87
2019-04-29T20:58:06.393Z,22.67
2019-04-29T21:02:13.244Z,22.10
2019-04-29T21:06:21.593Z,23.70
2019-04-29T21:10:30.526Z,23.50
2019-04-29T21:14:46.340Z,24.50
2019-04-29T21:18:56.690Z,24.37
2019-04-29T21:23:03.081Z,26.07
2019-04-29T21:27:10.075Z,24.63
2019-04-29T21:31:20.017Z,25.63
2019-04-29T21:35:36.113Z,26.77
2019-04-29T21:39:56.353Z,28.33
2019-04-29T21:44:05.187Z,26.27
2019-04-29T21:48:12.028Z,26.40
2019-04-29T21:52:19.580Z,27.43
2019-04-29T21:56:27.673Z,27.37
2019-04-29T22:00:35.233Z,27.83
2019-04-29T22:04:45.003Z,26.73
2019-04-29T22:08:54.280Z,25.73
2019-04-29T22:13:02.372Z,24.57
2019-04-29T22:17:09.354Z,25.43
2019-04-29T22:21:22.036Z,24.43
2019-04-29T22:25:25.840Z,26.27
2019-04-29T22:29:37.310Z,24.80
2019-04-29T22:33:41.468Z,24.27
2019-04-29T22:37:48.622Z,25.13
2019-04-29T22:42:29.328Z,24.03
2019-04-29T22:46:40.192Z,24.10
2019-04-29T22:50:47.399Z,23.67
2019-04-29T22:55:01.619Z,24.00
2019-04-29T22:59:07.608Z,23.67
2019-04-29T23:03:14.395Z,23.67
2019-04-29T23:07:22.186Z,24.33
2019-04-29T23:11:34.687Z,24.07
2019-04-29T23:15:39.211Z,22.57
2019-04-29T23:19:50.606Z,22.80
2019-04-29T23:24:13.267Z,22.77
2019-04-29T23:28:16.513Z,22.53
2019-04-29T23:32:25.235Z,24.27
2019-04-29T23:36:32.769Z,24.23
2019-04-29T23:40:39.616Z,23.93
2019-04-29T23:44:46.741Z,21.97
2019-04-29T23:48:56.540Z,23.57
2019-04-29T23:53:02.656Z,23.17
2019-04-29T23:57:35.867Z,24.00
